Morrisville, NY

12:37 PM EST on December 21, 2014 (GMT -0500)
Syracuse Hancock International | Change Station
CLOSE
Current Station
Airport
Location: Syracuse,
Elevation: 420 ft
Nearby Weather Stations

Elev 420 ft 43.11 °N, 76.10 °W | Updated 43 minutes ago

Overcast
Overcast
30 °F
Feels Like 30 °F
N
0
Wind Variable Wind from North

Today
High -- | Low -- °F
--% Chance of Precip.
Yesterday
High -- | Low -- °F
Precip. -- in
7:30 AM 4:31 PM
Waning Crescent, 0% visible
Pressure 30.33 in
Visibility 7.0 miles
Clouds Mostly Cloudy 2400 ft
Overcast 3400 ft
Dew Point 25 °F
Humidity 82%
Rainfall 0.00 in
Snow Depth Not available.
UV 1 out of 12
Pollen .10 out of 12
Air Quality Not available.
Flu Activity Not available.
METAR KSYR 211654Z 00000KT 7SM -SN BKN024 OVC034 M01/M04 A3032 RMK AO2 SLP271 P0000 T10111039 $

More Conditions Fewer Conditions

Pressure 30.33 in
Visibility 7.0 miles
Clouds Mostly Cloudy 2400 ft
Overcast 3400 ft
Dew Point 25 °F
Humidity 82%
Rainfall 0.00 in
Snow Depth Not available.
UV 1 out of 12
Pollen .10 out of 12
Air Quality Not available.
Flu Activity Not available.
METAR KSYR 211654Z 00000KT 7SM -SN BKN024 OVC034 M01/M04 A3032 RMK AO2 SLP271 P0000 T10111039 $

More Conditions Fewer Conditions

Nowcast | as of 9:44 am EST on December 21, 2014

Skies will be cloudy with scattered flurries through 1 PM. Patchy areas of freezing frizzle are also possible, so be alert for slippery conditions on area roadways, driveways, and sidewalks.

×

10-Day Weather Forecast

Almanac

Astronomy

Dec. 21, 2014 Rise Set
Actual Time
Civil Twilight
Nautical Twilight
Astronomical Twilight
Moon
Length of Visible Light
Length of Day
Tomorrow will be .
, % of the Moon is Illuminated

Today's Extremes

State Highs State Lows

Community

WunderPhotos

Upload Photos

1,779,431 photos uploaded!

WunderBlogs® & News

Nearby

Air Quality

  Air Quality AQ Index Pollutant
Not available.

Snow Depth

Station Depth Elevation

Earthquake Activity

City Distance Mag. Time & Date
Minimum magnitude displayed is 2.5.

Coastal Water Temperatures

Place Temperature

Nearby Weather Stations